Impacts TAF Board
For situational awareness. Not to be used for flight planning purposes.
IDs:

KIAD - Washington/Dulles In, VA, US

Issued at 0523 UTC 24 Mar 2019
Updated at 0655 UTC 24 Mar 2019
Potential Impact None Slight Moderate High
Time0652Z 24/07Z 24/08Z 24/09Z 24/10Z 24/11Z 24/12Z 24/13Z 24/14Z 24/15Z 24/16Z 24/17Z 24/18Z 24/19Z>>
Type OBS PRVL PRVL PRVL PRVL PRVL PRVL PRVL PRVL PRVL PRVL PRVL PRVL PRVL
VIS 10 >6 >6 >6 >6 >6 >6 >6 >6 >6 >6 >6 >6 >6
CIG -- -- -- -- -- -- -- -- -- -- -- -- -- --
Cover CLR SKC SKC SKC SKC SKC SKC SKC SKC SCT SCT SCT SCT SCT
FltCat VFR VFR VFR VFR VFR VFR VFR VFR VFR VFR VFR VFR VFR VFR
WX -- -- -- -- -- -- -- -- -- -- -- -- -- --
WDir VRB VRB VRB VRB VRB VRB VRB VRB VRB 210 210 210 210 210
WSpd 0 3 3 3 3 3 3 3 3 8 8 8 8 8
WGst -- -- -- -- -- -- -- -- -- -- -- -- -- --
Raw TAF
KIAD 240523Z 2406/2512 VRB03KT P6SM SKC
  FM241500 21008KT P6SM FEW150 SCT250
  FM250300 VRB03KT P6SM BKN090 OVC250


Raw METAR
KIAD 240652Z 00000KT 10SM CLR M01/M07 A3026 RMK AO2 SLP250 T10061067
KIAD 240552Z 31005KT 10SM CLR 01/M07 A3025 RMK AO2 SLP246 T00111067 10083 20006 55001
KIAD 240452Z 32005KT 10SM CLR 04/M08 A3025 RMK AO2 SLP243 T00391078 401110006
KIAD 240352Z VRB05KT 10SM CLR 04/M07 A3026 RMK AO2 SLP247 T00391072

METAR Board
Radar Display
Forecast Discussion
For situational awareness. Not to be used for flight planning purposes.